Date,TemperatureHighF,TemperatureAvgF,TemperatureLowF,DewpointHighF,DewpointAvgF,DewpointLowF,HumidityHigh,HumidityAvg,HumidityLow,PressureMaxIn,PressureMinIn,WindSpeedMaxMPH,WindSpeedAvgMPH,GustSpeedMaxMPH,PrecipitationSumIn
2013-1-1,44,40,32,43,40,32,99,99,99,29.36,29.15,9,3,12,0.38
2013-1-2,36,31,25,32,28,25,99,90,72,29.43,29.32,5,2,9,0.00
2013-1-3,50,34,20,38,29,20,99,87,55,29.58,29.40,5,1,8,0.00
2013-1-4,54,35,21,42,30,21,99,87,54,29.66,29.53,49,1,49,1.42
2013-1-5,47,38,26,41,35,26,99,92,73,29.56,29.40,4,1,8,0.00
2013-1-6,54,40,27,45,37,26,99,91,62,29.54,29.37,7,2,9,0.00
2013-1-7,62,36,22,40,30,21,99,84,43,29.58,29.36,4,1,8,0.00
2013-1-8,61,46,28,51,41,28,99,83,61,29.43,29.30,7,2,9,0.00
2013-1-9,57,54,52,57,54,51,99,98,87,29.50,29.35,4,2,8,0.78
2013-1-10,68,62,55,68,62,55,99,99,99,29.42,29.03,14,5,23,0.99
2013-1-11,73,62,54,64,59,54,99,92,66,29.20,29.07,9,3,13,0.06
2013-1-12,72,69,64,72,68,64,99,99,99,29.11,28.88,9,4,14,0.20
2013-1-13,70,46,36,70,46,36,99,99,99,29.33,28.88,9,5,17,3.19
2013-1-14,30,28,27,30,28,26,99,99,96,29.56,29.39,10,4,15,0.00
2013-1-15,32,30,26,31,30,26,99,99,99,29.41,29.19,0,0,0,0.00
2013-1-16,34,32,30,33,32,30,99,99,99,29.34,29.19,0,0,0,0.00
2013-1-17,50,38,32,44,37,31,99,95,75,29.63,29.26,9,2,13,0.04
2013-1-18,61,38,23,42,32,22,99,84,45,29.72,29.50,4,1,6,0.00
2013-1-19,62,47,34,43,39,33,99,77,47,29.50,29.32,8,3,12,0.00
2013-1-20,67,46,30,49,38,30,99,78,44,29.42,29.28,6,2,9,0.00
2013-1-21,48,35,23,33,26,21,96,70,44,29.50,29.31,9,3,13,0.00
2013-1-22,46,33,21,27,23,21,99,72,47,29.58,29.46,4,1,8,0.00
2013-1-23,59,39,24,44,34,21,99,84,59,29.50,29.31,4,1,8,0.00
2013-1-24,47,40,36,43,30,24,99,69,54,29.58,29.35,8,3,13,0.00
2013-1-25,52,40,31,52,37,28,99,90,59,29.41,29.18,7,2,11,0.12
2013-1-26,61,44,29,47,37,28,99,81,49,29.48,29.39,4,1,7,0.00
2013-1-27,69,56,47,60,52,40,99,85,70,29.41,29.27,8,4,12,0.00
2013-1-28,76,64,58,71,63,58,99,97,82,29.33,29.19,9,5,14,0.02
2013-1-29,79,69,59,71,66,59,99,93,78,29.20,28.61,17,6,24,0.11
2013-1-30,70,49,34,70,46,30,99,90,73,29.19,28.65,13,6,23,1.03
2013-1-31,58,42,27,41,34,26,99,77,50,29.49,29.18,10,4,15,0.00
2013-2-1,45,31,22,28,18,12,78,60,36,29.69,29.45,8,3,12,11.34
2013-2-2,57,37,25,44,32,19,99,84,55,29.46,29.28,6,2,11,0.01
2013-2-3,57,44,31,42,36,30,99,76,48,29.35,29.26,10,3,15,0.00
2013-2-4,60,46,33,48,40,33,99,83,49,29.26,29.06,8,2,15,0.06
2013-2-5,68,51,37,58,48,37,99,91,60,29.21,29.07,5,1,8,0.00
2013-2-6,67,51,35,55,46,34,99,86,65,29.35,29.19,5,1,8,0.00
2013-2-7,73,60,47,62,55,45,99,87,69,29.19,29.01,6,2,10,0.26
2013-2-8,57,45,31,57,44,30,99,96,85,29.46,29.03,11,5,16,0.27
2013-2-9,56,43,27,45,39,26,99,86,65,29.47,29.19,6,2,10,0.00
2013-2-10,61,56,51,61,53,43,99,92,70,29.20,28.88,10,5,15,0.85
2013-2-11,68,51,45,58,42,36,99,74,42,29.36,29.11,5,2,8,0.00
2013-2-12,54,46,-5,46,43,37,99,89,62,29.31,28.92,6,2,9,12.13
2013-2-13,46,41,36,45,41,35,99,99,96,29.19,28.91,7,3,11,0.07
2013-2-14,67,47,11,50,40,-22,99,82,22,29.23,29.14,52,3,102,0.00
2013-2-15,59,45,33,46,38,31,99,79,46,29.35,29.20,8,3,13,0.00
2013-2-16,44,34,25,34,25,21,92,71,51,29.42,29.34,8,3,15,0.00
2013-2-17,60,44,29,38,31,25,87,65,43,29.42,29.23,8,4,11,0.00
2013-2-18,59,51,42,56,48,36,99,88,67,29.25,28.91,15,6,21,1.00
2013-2-19,52,41,27,47,34,27,99,78,46,29.43,29.11,9,4,15,0.00
2013-2-20,42,33,27,31,25,20,99,73,52,29.50,29.32,7,2,11,0.00
2013-2-21,47,40,33,47,36,29,99,89,61,29.34,28.89,8,3,14,0.69
2013-2-22,53,43,37,50,42,37,99,97,82,29.24,29.03,5,2,8,0.00
2013-2-23,57,40,30,41,35,29,99,84,51,29.21,29.09,6,2,9,0.00
2013-2-24,68,44,26,45,36,26,99,77,43,29.25,29.05,6,2,10,0.00
2013-2-25,63,52,41,58,46,33,99,79,59,29.06,28.46,10,5,21,0.43
2013-2-26,54,45,41,54,43,39,99,94,84,28.98,28.49,11,6,19,0.00
2013-2-27,48,43,40,42,38,35,92,85,73,29.13,28.97,8,4,12,0.00
2013-2-28,44,39,33,35,33,31,97,79,68,29.16,28.78,8,4,13,0.00
2013-3-1,38,36,33,35,33,30,98,89,80,28.93,28.85,6,4,11,0.00
2013-3-2,36,33,28,34,30,25,99,89,74,29.02,28.90,7,4,12,0.00
2013-3-3,56,36,18,33,27,18,99,74,42,29.01,28.83,5,1,8,0.00
2013-3-4,71,54,34,55,41,29,85,62,41,28.85,28.53,12,5,19,0.00
2013-3-5,64,51,38,63,45,27,99,82,54,28.95,28.54,13,7,20,0.19
2013-3-6,52,39,30,36,30,26,99,72,54,29.12,28.95,9,4,15,0.00
2013-3-7,63,42,29,42,35,29,99,80,46,29.16,29.04,4,2,8,0.00
2013-3-8,74,48,30,44,37,30,99,71,32,29.17,28.94,4,1,8,0.00
2013-3-9,74,61,46,48,42,35,76,52,38,28.95,28.70,9,4,15,0.00
2013-3-10,66,58,52,64,55,48,99,90,59,28.74,28.52,12,5,17,1.00
2013-3-11,53,42,32,52,40,31,99,91,68,28.82,28.61,8,4,13,0.00
2013-3-12,60,42,26,43,34,26,99,77,41,28.98,28.80,6,2,10,0.00
2013-3-13,55,44,30,39,33,29,98,67,47,29.18,28.98,9,4,15,0.00
2013-3-14,69,50,26,43,37,26,99,67,39,29.58,29.16,6,2,11,0.00
2013-3-15,81,66,44,64,54,41,97,68,55,29.33,29.03,10,5,17,0.00
2013-3-16,81,67,55,66,60,54,99,80,61,29.08,28.96,11,5,19,0.00
2013-3-17,78,63,52,67,59,52,99,88,67,29.06,28.83,6,2,10,0.08
2013-3-18,68,57,42,68,57,41,99,99,95,29.19,28.81,9,4,15,0.70
2013-3-19,65,48,32,46,37,30,99,71,38,29.34,29.18,6,2,10,0.00
2013-3-20,58,47,33,43,32,17,99,60,36,29.38,29.23,9,4,16,0.00
2013-3-21,54,41,27,37,25,18,99,57,33,29.27,29.08,5,2,8,0.02
2013-3-22,49,43,34,48,42,34,99,99,99,29.14,29.01,5,2,9,0.44
2013-3-23,57,50,46,57,50,46,99,99,99,29.06,28.81,5,2,8,0.52
2013-3-24,53,46,37,52,44,31,99,91,78,29.11,28.69,13,6,23,0.08
2013-3-25,42,37,33,32,29,26,82,73,64,29.40,29.11,11,7,21,0.00
2013-3-26,53,39,28,36,31,27,99,75,50,29.52,29.38,8,4,13,0.00
2013-3-27,66,43,24,42,34,24,99,76,42,29.57,29.43,5,1,8,0.00
2013-3-28,76,53,31,50,41,30,99,72,38,29.50,29.35,4,1,8,0.00
2013-3-29,68,55,46,58,50,42,99,86,50,29.41,29.30,6,2,11,0.13
2013-3-30,60,55,51,60,55,51,99,99,99,29.33,29.07,3,1,6,0.43
2013-3-31,68,58,45,66,58,44,99,99,91,29.11,29.01,8,2,11,0.02
2013-4-1,75,56,39,60,50,39,99,82,54,29.28,29.08,7,2,11,0.00
2013-4-2,54,48,40,47,39,34,99,75,52,29.40,29.24,7,4,11,0.04
2013-4-3,49,46,41,45,38,32,99,77,56,29.37,29.25,5,3,10,0.07
2013-4-4,48,45,42,48,44,38,99,96,69,29.27,29.11,4,2,8,0.30
2013-4-5,76,55,43,55,47,42,99,79,39,29.32,29.19,5,2,11,0.00
2013-4-6,80,60,41,56,48,41,99,72,37,29.26,29.07,10,3,15,0.00
2013-4-7,75,64,53,65,58,50,99,84,62,29.20,29.06,9,3,12,0.00
2013-4-8,84,70,60,69,65,59,99,85,61,29.15,29.01,8,4,14,0.00
2013-4-9,86,75,65,78,72,64,99,92,73,29.15,29.01,10,4,16,0.00
2013-4-10,88,78,71,79,74,71,99,88,68,29.11,28.83,10,5,18,0.00
2013-4-11,75,53,42,74,53,42,99,99,95,28.97,28.82,10,2,15,2.48
2013-4-12,71,54,37,58,48,36,99,84,55,29.15,28.96,7,2,12,0.01
2013-4-13,81,60,43,58,51,42,99,77,44,29.25,29.06,4,1,7,0.00
2013-4-14,74,62,52,66,59,52,99,89,72,29.08,28.90,9,4,16,0.00
2013-4-15,87,70,55,75,66,54,99,89,65,29.09,28.97,7,4,11,0.00
2013-4-16,91,77,69,82,75,68,99,95,75,29.20,29.06,8,3,12,0.00
2013-4-17,91,78,67,82,75,67,99,93,72,29.23,29.00,8,3,13,0.00
2013-4-18,82,71,46,76,68,46,99,92,72,29.02,28.73,10,6,20,1.56
2013-4-19,58,48,40,46,41,37,99,80,56,29.30,28.98,8,4,15,0.00
2013-4-20,76,55,35,57,44,35,99,74,41,29.41,29.29,5,1,10,0.00
2013-4-21,77,59,44,51,46,42,96,67,38,29.49,29.31,7,2,14,0.22
2013-4-22,82,62,42,62,54,42,99,79,50,29.36,29.16,6,2,12,0.00
2013-4-23,80,67,56,72,65,56,99,94,76,29.22,29.04,8,3,13,0.00
2013-4-24,70,51,39,69,50,39,99,94,72,29.44,29.01,8,4,15,0.87
2013-4-25,76,54,33,55,45,33,99,79,43,29.54,29.42,4,1,8,0.00
2013-4-26,74,57,45,60,52,45,99,86,49,29.56,29.34,8,2,14,0.07
2013-4-27,77,65,55,77,64,54,99,99,94,29.37,29.01,6,2,11,0.11
2013-4-28,73,63,51,69,61,51,99,94,74,29.13,29.07,5,2,9,0.00
2013-4-29,87,66,45,72,60,45,99,85,55,29.17,29.01,3,1,5,0.00
2013-4-30,90,70,52,72,63,52,99,81,53,29.11,29.03,6,2,10,0.00
2013-5-1,82,70,60,78,68,60,99,94,79,29.20,29.07,7,2,12,0.01
2013-5-2,70,65,62,70,64,62,99,99,99,29.25,29.14,3,1,5,1.03
2013-5-3,64,49,36,63,48,36,99,99,99,29.16,29.03,6,2,10,1.62
2013-5-4,63,46,33,53,44,33,99,92,67,29.12,29.03,7,1,11,0.08
2013-5-5,64,52,45,58,50,45,99,94,70,29.09,29.01,7,3,15,0.67
2013-5-6,68,59,53,65,58,53,99,98,87,29.11,29.01,6,2,10,0.00
2013-5-7,79,67,50,70,62,50,99,86,67,29.16,29.08,5,1,8,0.00
2013-5-8,88,69,51,74,64,51,99,84,57,29.23,29.14,4,1,7,0.00
2013-5-9,85,71,58,76,68,58,99,90,69,29.23,29.09,8,2,19,0.00
2013-5-10,78,68,63,78,68,63,99,99,96,29.12,29.00,9,2,12,1.12
2013-5-11,77,67,58,68,64,58,99,89,64,29.20,29.06,6,3,11,0.00
2013-5-12,74,61,46,62,48,41,99,67,38,29.38,29.20,7,3,11,0.00
2013-5-13,82,63,43,63,54,42,99,77,49,29.43,29.26,4,1,8,0.00
2013-5-14,91,74,58,75,64,57,99,75,51,29.29,29.16,7,3,14,0.00
2013-5-15,90,76,63,71,65,60,95,71,51,29.28,29.10,8,3,15,0.00
2013-5-16,81,72,64,76,69,64,99,91,73,29.15,29.04,4,2,8,0.01
2013-5-17,84,72,66,81,71,65,99,97,82,29.09,29.02,5,2,10,0.28
2013-5-18,90,77,65,88,76,64,99,98,89,29.14,29.05,4,1,7,0.00
2013-5-19,93,81,72,82,77,72,99,90,67,29.12,29.02,6,3,11,0.00
2013-5-20,92,82,73,85,79,72,99,93,77,29.11,28.98,7,3,12,0.00
2013-5-21,81,72,64,81,71,63,99,99,95,29.13,28.91,11,2,17,3.58
2013-5-22,86,71,63,78,69,-25,99,95,73,29.06,28.91,7,2,10,0.07
2013-5-23,86,74,-18,80,70,61,99,84,65,29.26,29.05,6,2,11,12.28
2013-5-24,81,67,55,66,61,-11,99,82,54,29.44,29.26,8,4,12,0.00
2013-5-25,88,69,50,71,62,49,99,82,51,29.46,29.29,5,1,11,0.00
2013-5-26,92,73,56,73,66,56,99,80,50,29.36,29.23,4,1,9,0.00
2013-5-27,92,76,63,80,71,62,99,87,56,29.26,29.11,6,2,15,0.00
2013-5-28,94,80,71,81,74,68,99,83,55,29.20,29.10,5,3,11,0.00
2013-5-29,93,79,63,82,75,63,99,87,60,29.19,29.06,6,2,11,0.00
2013-5-30,90,78,72,84,77,72,99,96,79,29.17,29.05,9,3,16,0.00
2013-5-31,89,79,70,87,78,70,99,97,88,29.14,28.98,6,2,11,0.41
2013-6-1,86,74,67,86,74,67,99,99,88,29.15,28.95,8,3,13,0.32
2013-6-2,85,74,68,80,72,67,99,94,76,29.12,29.04,6,2,9,0.00
2013-6-3,87,72,60,76,69,60,99,89,65,29.16,29.06,5,2,10,0.00
2013-6-4,95,76,61,80,71,60,99,87,62,29.16,29.05,4,1,8,0.00
2013-6-5,93,79,67,86,77,67,99,94,74,29.09,28.93,7,2,11,0.26
2013-6-6,88,77,68,81,74,67,99,92,74,28.99,28.89,6,2,10,0.00
2013-6-7,87,75,62,76,70,62,99,84,56,29.04,28.92,6,3,9,0.00
2013-6-8,92,75,57,77,66,57,99,79,50,29.14,29.02,5,1,9,0.00
2013-6-9,93,76,65,84,74,64,99,94,73,29.13,28.94,5,2,11,0.44
2013-6-10,72,72,72,72,72,72,99,99,99,28.98,28.98,4,4,4,0.44
2013-6-11,72,72,72,72,72,72,99,99,99,28.98,28.98,4,4,4,0.44
2013-6-12,72,72,72,72,72,72,99,99,99,28.98,28.98,4,4,4,0.44
2013-6-13,72,72,72,72,72,72,99,99,99,28.98,28.98,4,4,4,0.44
2013-6-14,72,72,72,72,72,72,99,99,99,28.98,28.98,4,4,4,0.44
2013-6-15,97,80,72,81,75,71,99,87,56,29.19,28.98,4,2,7,0.13
2013-6-16,98,80,69,87,78,69,99,92,70,29.22,29.11,4,1,8,0.00
2013-6-17,86,77,72,86,77,72,99,99,99,29.16,29.01,7,1,11,0.47
2013-6-18,90,78,69,82,76,69,99,94,74,29.16,29.04,6,2,8,0.00
2013-6-19,98,79,66,86,75,66,99,90,61,29.21,29.11,10,1,13,0.00
2013-6-20,99,83,67,85,77,66,99,85,58,29.30,29.21,4,1,5,0.00
2013-6-21,98,84,71,86,79,70,99,88,66,29.34,29.23,4,2,10,0.00
2013-6-22,96,83,70,86,79,70,99,88,67,29.32,29.18,5,2,9,0.00
2013-6-23,98,83,70,85,78,70,99,87,62,29.28,29.18,4,1,8,0.00
2013-6-24,99,85,72,89,81,72,99,90,68,29.31,29.18,5,2,8,0.00
2013-6-25,97,85,74,87,81,73,99,90,65,29.26,29.11,6,2,9,0.00
2013-6-26,98,85,74,87,81,73,99,87,61,29.18,29.03,7,2,12,0.00
2013-6-27,102,86,73,92,83,73,99,92,73,29.11,28.98,10,2,17,0.19
2013-6-28,94,79,72,88,77,71,99,94,70,29.10,28.88,13,2,18,0.73
2013-6-29,92,80,66,80,73,65,99,81,55,28.94,28.86,6,2,10,0.00
2013-6-30,84,74,64,76,71,63,99,91,75,29.00,28.89,6,3,11,0.00
2013-7-1,86,74,68,79,72,67,99,93,75,29.11,28.98,8,3,12,0.01
2013-7-2,89,75,62,76,70,61,99,86,61,29.21,29.08,5,2,9,0.00
2013-7-3,90,75,62,79,70,61,99,88,62,29.27,29.18,4,1,8,0.00
2013-7-4,97,78,63,84,74,62,99,90,65,29.22,29.11,5,2,9,0.00
2013-7-5,94,76,65,86,74,65,99,94,75,29.24,29.12,9,2,11,2.30
2013-7-6,95,79,65,85,76,65,99,93,72,29.24,28.79,4,2,6,0.01
2013-7-7,95,81,70,88,79,70,99,95,75,29.27,29.19,5,2,8,0.00
2013-7-8,98,82,71,90,80,71,99,94,74,29.34,29.23,3,1,7,0.00
2013-7-9,99,86,74,88,82,74,99,90,69,29.31,29.17,5,1,8,0.00
2013-7-10,100,86,77,94,84,77,99,93,70,29.23,29.05,4,2,8,0.00
2013-7-11,100,86,75,90,82,74,99,87,68,29.13,29.06,7,2,11,0.00
2013-7-12,76,75,74,74,73,72,94,93,92,29.14,29.13,4,4,7,0.00
2013-7-13,95,84,68,77,73,68,99,73,57,29.16,29.03,6,2,9,9.19
2013-7-14,97,79,67,86,76,66,99,93,70,29.20,29.08,5,2,10,0.00
2013-7-15,98,81,73,88,79,72,99,95,71,29.31,29.19,8,2,13,0.11
2013-7-16,98,83,72,89,80,71,99,92,70,29.39,29.30,5,1,8,0.01
2013-7-17,102,86,71,89,81,70,99,86,63,29.43,29.26,4,1,6,0.00
2013-7-18,98,79,72,92,78,71,99,97,78,29.31,29.16,7,1,15,0.53
2013-7-19,96,81,70,90,79,70,99,94,76,29.21,29.06,4,1,8,0.01
2013-7-20,98,83,72,88,80,72,99,91,72,29.10,28.96,4,1,8,0.01
2013-7-21,98,85,74,89,81,74,99,91,66,29.10,29.00,5,2,8,0.00
2013-7-22,80,78,70,80,78,70,99,99,99,29.13,28.99,8,2,12,2.16
2013-7-23,92,80,70,90,79,70,99,98,90,29.14,28.95,8,2,11,0.58
2013-7-24,90,82,75,87,81,75,99,97,82,29.08,28.97,6,2,9,0.00
2013-7-25,90,77,66,78,73,66,99,87,65,29.19,29.07,6,3,11,0.00
2013-7-26,89,75,62,81,72,61,99,92,68,29.20,29.08,4,1,6,0.00
2013-7-27,92,77,69,82,75,69,99,93,70,29.12,29.01,4,1,7,0.05
2013-7-28,90,75,68,81,73,67,99,93,72,29.19,29.07,4,2,7,0.00
2013-7-29,80,70,66,76,69,66,99,98,82,29.27,29.17,4,1,8,0.00
2013-7-30,88,83,78,87,82,77,99,97,83,29.25,29.13,3,1,5,0.13
2013-7-31,97,80,74,90,80,74,99,97,80,29.19,29.04,4,1,8,0.61
2013-8-1,94,80,70,87,78,69,99,93,71,29.16,29.08,6,2,8,0.00
2013-8-2,97,80,65,86,76,64,99,90,66,29.16,29.07,4,1,8,0.00
2013-8-3,91,79,73,88,78,73,99,99,90,29.19,29.05,5,1,10,0.00
2013-8-4,96,82,69,89,79,68,99,94,76,29.24,29.14,4,1,6,0.00
2013-8-5,88,78,72,86,78,72,99,99,92,29.18,29.03,7,1,10,0.19
2013-8-6,94,82,75,92,82,74,99,99,91,29.08,28.99,5,2,9,0.00
2013-8-7,101,85,75,92,83,75,99,95,72,29.08,28.98,6,2,9,0.00
2013-8-8,101,87,77,94,84,77,99,93,71,29.08,28.98,3,1,8,0.00
2013-8-9,101,87,75,92,84,75,99,90,63,29.14,29.05,4,2,8,0.00
2013-8-10,97,83,75,90,82,74,99,95,76,29.24,29.13,6,1,12,0.00
2013-8-11,96,80,74,92,80,74,99,98,86,29.26,29.16,7,1,9,0.00
2013-8-13,77,76,76,76,76,75,99,99,99,29.10,29.09,4,3,6,0.00
2013-8-14,84,75,65,75,70,64,99,88,68,29.20,29.08,7,4,11,0.00
2013-8-15,88,72,58,73,66,58,99,85,57,29.21,29.11,5,2,8,0.00
2013-8-16,89,74,61,81,72,60,99,95,69,29.17,29.09,4,2,7,0.00
2013-8-17,89,75,65,81,73,65,99,96,77,29.21,29.12,6,1,9,0.25
2013-8-18,93,76,65,85,74,65,99,94,71,29.25,29.15,4,1,7,0.00
2013-8-19,96,78,65,85,76,65,99,92,69,29.22,29.11,4,1,7,0.00
2013-8-20,97,80,68,88,78,68,99,94,69,29.22,29.13,4,1,7,0.00
2013-8-21,100,82,70,90,80,70,99,92,63,29.26,29.16,3,1,6,0.00
2013-8-22,99,82,72,91,80,72,99,94,69,29.26,29.13,4,1,7,0.05
2013-8-23,100,83,69,88,79,68,99,90,62,29.20,29.10,5,1,8,0.00
2013-8-24,100,84,71,90,81,71,99,91,69,29.27,29.15,4,1,9,0.00
2013-8-25,97,81,73,89,80,73,99,95,73,29.39,29.26,4,2,8,0.00
2013-8-26,99,81,70,86,77,69,99,89,63,29.39,29.24,5,1,7,0.00
2013-8-27,99,80,65,83,75,64,99,86,59,29.29,29.16,3,1,6,0.00
2013-8-28,100,82,66,84,75,65,99,84,57,29.23,29.13,3,1,6,0.00
2013-8-29,101,83,68,86,78,67,99,86,62,29.21,29.09,4,1,7,0.00
2013-8-30,104,86,71,88,80,70,99,86,58,29.16,29.01,4,1,8,0.00
2013-8-31,103,86,72,87,80,72,99,85,60,29.06,28.93,5,2,10,0.06
2013-9-1,102,83,74,89,81,74,99,93,65,29.03,28.93,9,2,15,0.09
2013-9-2,96,83,76,87,81,76,99,94,73,29.06,28.95,6,2,14,0.00
2013-9-3,95,80,66,83,74,65,99,85,58,29.15,29.03,6,2,11,0.00
2013-9-4,94,77,63,81,72,62,99,87,63,29.24,29.13,5,2,8,0.00
2013-9-5,97,79,63,82,73,62,99,85,58,29.27,29.19,4,2,8,0.00
2013-9-6,100,79,65,82,73,65,99,85,53,29.27,29.14,4,1,6,0.00
2013-9-7,102,81,64,83,74,64,99,84,55,29.20,29.07,4,1,10,0.19
2013-9-8,104,83,68,86,76,67,99,84,55,29.11,29.00,4,1,6,0.00
2013-9-9,98,83,72,89,80,71,99,92,69,29.17,29.06,4,1,7,0.06
2013-9-10,103,84,73,88,80,73,99,90,63,29.25,29.14,5,2,8,0.00
2013-9-11,101,84,73,89,79,73,99,89,60,29.29,29.17,4,1,11,0.00
2013-9-12,101,82,71,87,77,70,99,87,59,29.19,29.05,9,2,15,0.99
2013-9-13,87,76,63,76,69,63,99,81,57,29.15,29.05,6,3,11,0.00
2013-9-14,84,69,53,76,61,53,99,79,51,29.22,28.99,6,2,9,15.80
2013-9-15,95,70,51,73,63,51,99,82,49,29.19,29.11,3,1,10,0.00
2013-9-16,96,76,58,79,69,57,99,82,45,29.23,29.14,5,2,9,0.00
2013-9-17,99,80,66,82,74,66,99,86,56,29.23,29.09,3,1,5,0.00
2013-9-18,92,79,70,86,77,70,99,95,78,29.19,29.08,5,2,10,0.00
2013-9-19,99,81,69,86,77,69,99,89,63,29.18,29.02,4,2,9,0.00
2013-9-20,79,74,69,79,74,68,99,99,99,29.07,28.90,5,1,8,1.58
2013-9-21,82,70,56,71,66,56,99,89,62,29.00,28.88,8,4,13,0.19
2013-9-22,84,66,52,69,61,52,99,86,59,29.03,28.93,6,2,9,0.11
2013-9-23,92,70,52,76,65,52,99,88,60,29.04,28.93,4,1,8,0.00
2013-9-24,82,72,63,81,71,63,99,99,99,28.98,28.87,4,1,6,0.08
2013-9-25,90,76,66,84,74,66,99,93,69,28.92,28.84,4,1,6,0.00
2013-9-26,94,76,63,85,73,62,99,92,65,29.07,28.90,5,1,7,0.00
2013-9-27,94,75,61,82,71,61,99,90,64,29.16,29.06,4,1,8,0.00
2013-9-28,90,74,62,76,69,62,99,88,62,29.21,29.09,5,2,8,0.00
2013-9-29,71,67,64,71,67,64,99,99,99,29.13,29.03,3,2,5,0.08
2013-9-30,81,70,66,80,70,66,99,99,99,29.06,28.99,3,1,7,0.06
2013-10-1,90,75,67,86,74,66,99,98,85,29.15,29.03,4,1,7,0.00
2013-10-2,90,76,69,83,74,69,99,95,78,29.19,29.09,3,1,6,0.00
2013-10-3,93,77,65,85,75,64,99,95,74,29.14,29.02,4,2,6,0.00
2013-10-4,91,77,68,86,76,68,99,98,85,29.15,29.05,4,2,6,0.00
2013-10-5,93,80,72,86,78,71,99,95,77,29.11,28.94,4,2,8,0.17
2013-10-6,75,64,55,74,60,54,99,89,64,29.08,28.95,6,2,10,0.81
2013-10-7,75,58,45,64,55,45,99,90,65,29.19,29.05,6,2,9,0.00
2013-10-8,81,62,49,66,58,49,99,89,61,29.23,29.12,7,2,12,0.00
2013-10-9,84,66,54,78,65,54,99,97,80,29.23,29.13,4,1,6,0.00
2013-10-10,88,69,57,78,66,57,99,92,65,29.24,29.08,3,1,5,0.00
2013-10-11,91,69,55,78,66,55,99,91,62,29.14,29.03,4,1,8,0.00
2013-10-12,82,67,58,81,66,58,99,99,96,29.21,29.06,8,1,14,0.37
2013-10-13,84,70,61,79,69,61,99,96,79,29.34,29.20,5,2,8,0.01
2013-10-14,88,70,56,79,67,56,99,92,66,29.30,29.13,5,1,8,0.00
2013-10-15,75,70,68,75,70,67,99,99,98,29.14,29.03,4,2,8,0.35
2013-10-16,68,62,58,68,62,57,99,99,99,29.10,29.01,7,2,12,0.83
2013-10-17,72,60,47,66,58,47,99,94,71,29.11,29.03,4,1,8,0.01
2013-10-18,78,59,43,67,55,43,99,90,60,29.17,29.02,3,1,6,0.00
2013-10-19,64,53,40,58,52,40,99,96,73,29.17,29.00,8,2,13,0.02
2013-10-20,76,52,37,58,48,37,99,87,52,29.20,29.06,3,1,7,0.01
2013-10-21,79,58,41,62,53,41,99,87,54,29.16,29.03,6,1,9,0.00
2013-10-22,71,58,51,61,54,50,99,90,56,29.16,28.98,5,2,8,0.01
2013-10-23,65,52,41,54,47,41,99,86,57,29.25,29.03,7,2,11,0.00
2013-10-24,69,53,40,58,48,39,99,86,64,29.45,29.18,8,2,13,0.00
2013-10-25,62,44,33,42,38,33,99,82,47,29.60,29.40,6,2,11,0.00
2013-10-26,69,51,34,56,46,34,99,86,57,29.41,29.17,5,1,10,0.00
2013-10-27,72,60,52,69,59,52,99,98,84,29.19,29.10,3,1,6,0.01
2013-10-28,77,63,56,71,62,56,99,97,78,29.30,29.14,3,1,5,0.00
2013-10-29,80,65,52,78,65,52,99,99,95,29.32,29.18,4,1,8,0.00
2013-10-30,78,69,60,78,68,59,99,99,95,29.27,29.03,5,2,10,0.00
2013-10-31,71,68,62,71,68,61,99,98,88,29.04,28.66,10,4,19,2.03
2013-11-1,77,60,47,64,56,47,99,89,57,28.98,28.84,5,1,10,0.00
2013-11-2,64,53,40,54,50,40,99,89,67,29.29,28.97,8,2,13,0.00
2013-11-3,70,48,34,56,44,34,99,88,53,29.40,29.23,5,1,8,0.00
2013-11-4,69,54,41,57,52,41,99,91,63,29.37,29.27,6,2,11,0.00
2013-11-5,76,62,51,65,58,51,99,87,69,29.38,29.22,7,3,16,0.00
2013-11-6,63,58,46,63,57,46,99,97,93,29.33,29.11,9,3,15,0.01
2013-11-7,62,47,35,47,42,35,99,86,54,29.49,29.32,9,3,15,0.00
2013-11-8,74,48,31,54,43,31,99,87,47,29.47,29.29,4,1,8,0.00
2013-11-9,63,51,40,53,48,40,99,91,63,29.38,29.27,4,1,7,0.00
2013-11-10,75,54,41,61,50,41,99,88,54,29.43,29.34,6,1,8,0.00
2013-11-11,76,54,37,58,48,36,99,85,54,29.39,29.23,4,1,7,0.00
2013-11-12,55,42,31,55,37,27,99,85,58,29.74,29.29,13,7,20,0.00
2013-11-13,56,36,25,35,29,25,99,80,43,29.79,29.52,5,2,9,0.00
2013-11-14,65,40,22,38,31,22,99,76,36,29.53,29.24,5,1,8,0.00
2013-11-15,67,51,37,63,50,34,99,95,82,29.25,29.09,4,1,8,0.01
2013-11-16,71,62,53,71,62,53,99,99,99,29.13,28.96,7,3,15,0.04
2013-11-17,77,70,62,77,68,48,99,94,57,29.06,28.80,7,4,15,0.22
2013-11-18,68,55,41,51,44,35,99,70,45,29.33,29.06,7,3,13,0.00
2013-11-19,55,45,33,40,35,33,99,72,49,29.39,29.24,6,2,11,0.00
2013-11-20,70,48,30,52,42,30,99,83,53,29.27,29.14,7,2,11,0.00
2013-11-21,71,59,50,66,58,49,99,97,85,29.29,29.18,8,3,12,0.34
2013-11-22,61,54,44,60,54,43,99,99,99,29.47,29.24,8,4,15,0.69
2013-11-23,48,42,30,44,37,24,99,85,56,29.64,29.43,13,7,17,0.01
2013-11-24,42,31,23,27,23,21,92,74,53,29.73,29.50,11,5,17,0.00
2013-11-25,37,35,32,36,31,23,99,88,69,29.52,29.20,3,1,6,0.25
2013-11-26,41,37,35,41,37,32,99,98,88,29.21,29.01,10,5,15,0.11
2013-11-27,39,29,18,32,23,18,99,79,59,29.48,29.21,12,5,17,0.00
2013-11-28,50,31,17,33,26,16,99,84,51,29.57,29.46,4,1,8,0.00
2013-11-29,66,39,24,46,34,23,99,86,50,29.64,29.51,3,1,7,0.00
2013-11-30,62,40,24,43,34,24,99,84,48,29.52,29.29,5,1,9,0.00
2013-12-1,63,51,36,54,46,35,99,82,72,29.30,29.01,5,2,8,0.00
2013-12-2,64,55,46,63,55,46,99,98,87,29.01,28.79,3,1,4,0.00
2013-12-3,61,55,46,61,55,46,99,99,99,28.84,28.75,4,1,7,0.00
2013-12-4,78,68,60,75,68,59,99,98,89,28.91,28.76,11,4,18,0.00
2013-12-5,70,50,35,70,50,35,99,99,99,29.22,28.90,9,5,14,0.65
2013-12-6,35,32,26,35,31,26,99,99,99,29.52,29.14,8,3,11,0.83
2013-12-7,30,26,23,29,26,22,99,99,99,29.63,29.38,0,0,0,0.00
2013-12-8,35,33,30,35,33,29,99,99,99,29.42,29.14,3,0,6,0.04
2013-12-9,35,33,31,34,32,31,99,99,99,29.37,29.23,6,3,11,0.05
2013-12-10,44,31,22,38,29,22,99,93,72,29.52,29.28,4,0,9,0.01
2013-12-11,50,33,19,43,31,18,99,92,65,29.66,29.46,5,2,9,0.00
2013-12-12,55,32,18,34,26,17,99,82,42,29.70,29.47,6,1,8,0.00
2013-12-13,52,35,22,40,30,22,99,85,52,29.47,28.98,8,2,13,0.50
2013-12-14,46,41,36,45,41,36,99,99,99,29.23,28.87,8,4,13,0.56
2013-12-15,44,35,30,39,34,30,99,97,80,29.37,29.21,8,3,12,0.00
2013-12-16,62,44,30,50,40,29,99,88,64,29.32,29.20,8,3,12,0.00
2013-12-17,64,47,30,51,42,29,99,85,61,29.38,29.23,6,2,8,0.00
2013-12-18,66,45,27,46,39,26,99,81,49,29.44,29.20,6,2,10,0.00
2013-12-19,62,54,42,60,53,42,99,95,86,29.24,29.03,7,4,15,0.00
2013-12-20,69,64,60,69,64,59,99,99,99,29.07,28.88,8,4,14,0.11
2013-12-21,76,68,56,75,67,56,99,99,96,28.89,28.54,12,6,21,1.02
2013-12-22,57,50,38,57,50,38,99,99,99,29.32,28.77,7,3,11,0.02
2013-12-23,41,34,24,38,32,24,99,94,75,29.59,29.31,8,4,13,0.00
2013-12-24,42,29,21,28,24,21,99,86,56,29.69,29.49,6,2,10,0.00
2013-12-25,57,35,19,40,29,19,99,83,50,29.52,29.38,5,1,8,0.00
2013-12-26,55,36,25,40,32,25,99,88,52,29.52,29.42,5,1,8,0.00
2013-12-27,65,39,23,45,33,23,99,84,45,29.56,29.44,3,1,6,0.00
2013-12-28,49,39,30,46,39,29,99,97,86,29.44,29.05,4,1,6,0.08
2013-12-29,58,46,36,54,44,35,99,96,80,29.28,29.03,10,3,16,0.08
2013-12-30,36,32,29,35,32,28,99,99,97,29.44,29.26,7,3,12,0.00
2013-12-31,57,34,20,42,30,20,99,89,56,29.55,29.39,4,1,7,0.00
2014-1-1,62,42,22,49,38,22,99,88,57,29.39,29.02,5,2,10,0.00
2014-1-2,50,35,23,50,33,18,99,90,76,29.53,28.96,13,6,19,0.19